Overview Statistics Trail Chart Weather Telemetry Raw packets
 

This is the latest recevied weather packets stored in our database for station/object MB7UUE. If no packets are shown the sender has not sent any weather packets the latest 10 day(s).

<< 1 2 3 4 5 6 7 >>
Time Temp. Humidity Pressure Rain* Wind** Luminosity Snow
1788688849 21.67° C 56% 1021.8 hPa 0 mm - - -
1788688716 21.67° C 57% 1021.8 hPa 0 mm - - -
1788687703 21.67° C 58% 1022 hPa 0 mm - - -
1788687577 21.11° C 57% 1022 hPa 0 mm - - -
1788686562 21.11° C 60% 1022.1 hPa 0 mm - - -
1788686436 21.11° C 61% 1022.1 hPa 0 mm - - -
1788685423 20.56° C 64% 1022.2 hPa 0 mm - - -
1788685297 20.56° C 64% 1022.2 hPa 0 mm - - -
1788684282 19.44° C 69% 1022.4 hPa 0 mm - - -
1788684156 18.89° C 69% 1022.3 hPa 0 mm - - -
1788683143 18.89° C 70% 1022.6 hPa 0 mm - - -
1788683017 18.89° C 70% 1022.6 hPa 0 mm - - -
1788682002 18.33° C 71% 1022.7 hPa 0 mm - - -
1788681877 18.33° C 71% 1022.7 hPa 0 mm - - -
1788680863 17.22° C 75% 1022.6 hPa 0 mm - - -
1788680737 17.22° C 75% 1022.7 hPa 0 mm - - -
1788679722 16.11° C 77% 1022.8 hPa 0 mm - - -
1788679610 16.11° C 77% 1022.8 hPa 0 mm - - -
1788679171 16.11° C 78% 1023.1 hPa 0 mm - - -
1788678583 15.56° C 79% 1023.2 hPa 0 mm - - -
1788677443 15° C 79% 1023 hPa 0 mm - - -
1788676303 14.44° C 80% 1023.2 hPa 0 mm - - -
1788675158 14.44° C 80% 1023.2 hPa 0 mm - - -
1788674752 13.89° C 80% 1023.3 hPa 0 mm - - -
1788674386 13.89° C 81% 1023.3 hPa 0 mm - - -

* Rain latest hour (hover to see other rain measurements)
** Current wind speed in m/s (hover to see current wind gust speed)